Weinert, Texas
Current Conditions -  °F | °C
As of 11:15 PM on Friday 28 Nov 2014 (Local Time) from KBKD Reporting Station
Clear Clear  
Wind Chill: 61°   Ceiling: Unl
Heat Index: 61°   Visibility: 10mi
Dew Point: 42°   Wind: 24mph
Humidity: 50%   Direction: 210°SSW
Pressure: 29.96"   Gusts: 30mph
Location:  33.32°N, 99.67°W
Report Text: KBKD 290515Z AUTO 21021G26KT 10SM CLR 16/06 A2996 RMK AO2 T01600055
Loading
Personal Weather Stations






























Interactive Weather Map New forecast layout! Learn more

10-Day Weather Forecast

Advertisements
Track Severe Weather on mobile